sensor_id;sensor_type;location;lat;lon;timestamp;pressure;altitude;pressure_sealevel;temperature;humidity
12213;BME280;6169;44.158;22.788;2022-07-12T00:03:49;101343.28;;;18.44;nan
12213;BME280;6169;44.158;22.788;2022-07-12T00:08:52;101337.09;;;18.49;nan
12213;BME280;6169;44.158;22.788;2022-07-12T00:13:55;101330.09;;;18.53;nan
12213;BME280;6169;44.158;22.788;2022-07-12T00:18:57;101337.56;;;18.57;nan
12213;BME280;6169;44.158;22.788;2022-07-12T00:24:00;101332.81;;;18.65;nan
12213;BME280;6169;44.158;22.788;2022-07-12T00:29:03;101333.63;;;18.77;nan
12213;BME280;6169;44.158;22.788;2022-07-12T00:34:07;101336.25;;;18.60;nan
12213;BME280;6169;44.158;22.788;2022-07-12T00:39:09;101341.44;;;18.33;nan
12213;BME280;6169;44.158;22.788;2022-07-12T00:44:13;101339.00;;;18.48;nan
12213;BME280;6169;44.158;22.788;2022-07-12T00:49:15;101346.50;;;18.41;nan
12213;BME280;6169;44.158;22.788;2022-07-12T00:54:18;101342.16;;;18.05;nan
12213;BME280;6169;44.158;22.788;2022-07-12T00:59:21;101336.69;;;17.93;nan
12213;BME280;6169;44.158;22.788;2022-07-12T01:04:24;101339.06;;;18.01;nan
12213;BME280;6169;44.158;22.788;2022-07-12T01:09:28;101346.59;;;17.52;nan
12213;BME280;6169;44.158;22.788;2022-07-12T01:14:32;101355.88;;;17.63;nan
12213;BME280;6169;44.158;22.788;2022-07-12T01:19:35;101354.38;;;17.90;nan
12213;BME280;6169;44.158;22.788;2022-07-12T01:24:40;101354.34;;;17.79;nan
12213;BME280;6169;44.158;22.788;2022-07-12T01:29:43;101351.06;;;17.88;nan
12213;BME280;6169;44.158;22.788;2022-07-12T01:34:45;101361.38;;;18.22;nan
12213;BME280;6169;44.158;22.788;2022-07-12T01:39:51;101360.53;;;17.98;nan
12213;BME280;6169;44.158;22.788;2022-07-12T01:44:54;101356.69;;;17.52;nan
12213;BME280;6169;44.158;22.788;2022-07-12T01:49:57;101354.31;;;17.55;nan
12213;BME280;6169;44.158;22.788;2022-07-12T01:55:01;101353.84;;;17.70;nan
12213;BME280;6169;44.158;22.788;2022-07-12T02:00:05;101358.47;;;17.58;nan
12213;BME280;6169;44.158;22.788;2022-07-12T02:05:08;101356.38;;;17.30;nan
12213;BME280;6169;44.158;22.788;2022-07-12T02:10:12;101355.88;;;16.91;nan
12213;BME280;6169;44.158;22.788;2022-07-12T02:15:14;101355.75;;;16.97;nan
12213;BME280;6169;44.158;22.788;2022-07-12T02:20:16;101355.84;;;17.09;nan
12213;BME280;6169;44.158;22.788;2022-07-12T02:25:20;101357.25;;;17.12;nan
12213;BME280;6169;44.158;22.788;2022-07-12T02:30:22;101360.94;;;17.17;nan
12213;BME280;6169;44.158;22.788;2022-07-12T02:35:25;101368.25;;;17.05;nan
12213;BME280;6169;44.158;22.788;2022-07-12T02:40:28;101358.31;;;17.41;nan
12213;BME280;6169;44.158;22.788;2022-07-12T02:45:48;101359.47;;;17.33;nan
12213;BME280;6169;44.158;22.788;2022-07-12T02:50:50;101368.81;;;16.95;nan
12213;BME280;6169;44.158;22.788;2022-07-12T02:55:54;101365.63;;;16.80;nan
12213;BME280;6169;44.158;22.788;2022-07-12T03:00:56;101374.47;;;16.94;nan
12213;BME280;6169;44.158;22.788;2022-07-12T03:05:59;101377.38;;;17.29;nan
12213;BME280;6169;44.158;22.788;2022-07-12T03:11:03;101375.34;;;17.06;nan
12213;BME280;6169;44.158;22.788;2022-07-12T03:16:06;101379.53;;;16.72;nan
12213;BME280;6169;44.158;22.788;2022-07-12T03:21:08;101393.47;;;16.64;nan
12213;BME280;6169;44.158;22.788;2022-07-12T03:26:13;101395.97;;;16.84;nan
12213;BME280;6169;44.158;22.788;2022-07-12T03:31:15;101389.78;;;17.67;nan
12213;BME280;6169;44.158;22.788;2022-07-12T03:36:18;101397.31;;;19.18;nan
12213;BME280;6169;44.158;22.788;2022-07-12T03:41:22;101400.06;;;20.14;nan
12213;BME280;6169;44.158;22.788;2022-07-12T03:46:24;101405.06;;;21.00;nan
12213;BME280;6169;44.158;22.788;2022-07-12T03:51:27;101401.97;;;18.30;nan
12213;BME280;6169;44.158;22.788;2022-07-12T03:56:30;101410.03;;;18.01;nan
12213;BME280;6169;44.158;22.788;2022-07-12T04:01:49;101407.91;;;18.50;nan
12213;BME280;6169;44.158;22.788;2022-07-12T04:06:52;101404.91;;;18.52;nan
12213;BME280;6169;44.158;22.788;2022-07-12T04:11:56;101411.06;;;18.71;nan
12213;BME280;6169;44.158;22.788;2022-07-12T04:16:58;101408.00;;;18.67;nan
12213;BME280;6169;44.158;22.788;2022-07-12T04:22:00;101416.28;;;18.72;nan
12213;BME280;6169;44.158;22.788;2022-07-12T04:27:04;101424.03;;;18.87;nan
12213;BME280;6169;44.158;22.788;2022-07-12T04:32:07;101426.47;;;19.58;nan
12213;BME280;6169;44.158;22.788;2022-07-12T04:37:10;101431.03;;;19.52;nan
12213;BME280;6169;44.158;22.788;2022-07-12T04:42:13;101425.06;;;19.55;nan
12213;BME280;6169;44.158;22.788;2022-07-12T04:47:16;101426.47;;;19.86;nan
12213;BME280;6169;44.158;22.788;2022-07-12T04:52:18;101423.97;;;20.02;nan
12213;BME280;6169;44.158;22.788;2022-07-12T04:57:22;101427.13;;;20.27;nan
12213;BME280;6169;44.158;22.788;2022-07-12T05:02:24;101437.59;;;20.13;nan
12213;BME280;6169;44.158;22.788;2022-07-12T05:07:27;101438.00;;;20.78;nan
12213;BME280;6169;44.158;22.788;2022-07-12T05:12:30;101443.06;;;20.69;nan
12213;BME280;6169;44.158;22.788;2022-07-12T05:17:33;101426.63;;;20.52;nan
12213;BME280;6169;44.158;22.788;2022-07-12T05:22:35;101433.41;;;21.05;nan
12213;BME280;6169;44.158;22.788;2022-07-12T05:27:39;101436.56;;;21.41;nan
12213;BME280;6169;44.158;22.788;2022-07-12T05:32:42;101435.50;;;21.20;nan
12213;BME280;6169;44.158;22.788;2022-07-12T05:37:44;101438.13;;;21.59;nan
12213;BME280;6169;44.158;22.788;2022-07-12T05:42:48;101436.38;;;22.12;nan
12213;BME280;6169;44.158;22.788;2022-07-12T05:47:51;101437.69;;;22.37;nan
12213;BME280;6169;44.158;22.788;2022-07-12T05:52:54;101434.78;;;22.54;nan
12213;BME280;6169;44.158;22.788;2022-07-12T05:58:15;101430.06;;;22.97;nan
12213;BME280;6169;44.158;22.788;2022-07-12T06:03:17;101435.19;;;22.83;nan
12213;BME280;6169;44.158;22.788;2022-07-12T06:08:19;101439.16;;;23.02;nan
12213;BME280;6169;44.158;22.788;2022-07-12T06:13:23;101429.91;;;23.39;nan
12213;BME280;6169;44.158;22.788;2022-07-12T06:18:25;101422.53;;;23.70;nan
12213;BME280;6169;44.158;22.788;2022-07-12T06:23:28;101427.75;;;23.67;nan
12213;BME280;6169;44.158;22.788;2022-07-12T06:28:32;101422.00;;;24.25;nan
12213;BME280;6169;44.158;22.788;2022-07-12T06:33:35;101427.53;;;23.84;nan
12213;BME280;6169;44.158;22.788;2022-07-12T06:38:37;101429.16;;;24.21;nan
12213;BME280;6169;44.158;22.788;2022-07-12T06:43:41;101416.22;;;24.11;nan
12213;BME280;6169;44.158;22.788;2022-07-12T06:48:43;101416.13;;;24.72;nan
12213;BME280;6169;44.158;22.788;2022-07-12T06:53:45;101410.72;;;25.07;nan
12213;BME280;6169;44.158;22.788;2022-07-12T06:58:49;101408.47;;;25.09;nan
12213;BME280;6169;44.158;22.788;2022-07-12T07:03:51;101418.41;;;25.10;nan
12213;BME280;6169;44.158;22.788;2022-07-12T07:08:54;101411.03;;;25.49;nan
12213;BME280;6169;44.158;22.788;2022-07-12T07:13:57;101410.84;;;25.75;nan
12213;BME280;6169;44.158;22.788;2022-07-12T07:19:00;101411.97;;;25.35;nan
12213;BME280;6169;44.158;22.788;2022-07-12T07:24:03;101418.69;;;25.58;nan
12213;BME280;6169;44.158;22.788;2022-07-12T07:29:07;101409.19;;;25.74;nan
12213;BME280;6169;44.158;22.788;2022-07-12T07:34:26;101420.72;;;25.81;nan
12213;BME280;6169;44.158;22.788;2022-07-12T07:39:29;101411.69;;;25.70;nan
12213;BME280;6169;44.158;22.788;2022-07-12T07:44:32;101396.59;;;25.97;nan
12213;BME280;6169;44.158;22.788;2022-07-12T07:49:35;101409.44;;;25.78;nan
12213;BME280;6169;44.158;22.788;2022-07-12T07:54:37;101387.16;;;26.27;nan
12213;BME280;6169;44.158;22.788;2022-07-12T07:59:41;101402.56;;;26.04;nan
12213;BME280;6169;44.158;22.788;2022-07-12T08:04:43;101403.94;;;26.36;nan
12213;BME280;6169;44.158;22.788;2022-07-12T08:09:45;101401.31;;;26.21;nan
12213;BME280;6169;44.158;22.788;2022-07-12T08:14:49;101405.16;;;26.54;nan
12213;BME280;6169;44.158;22.788;2022-07-12T08:19:51;101411.66;;;26.10;nan
12213;BME280;6169;44.158;22.788;2022-07-12T08:24:53;101397.16;;;26.23;nan
12213;BME280;6169;44.158;22.788;2022-07-12T08:29:57;101396.09;;;26.72;nan
12213;BME280;6169;44.158;22.788;2022-07-12T08:34:59;101402.09;;;26.26;nan
12213;BME280;6169;44.158;22.788;2022-07-12T08:40:02;101398.97;;;26.62;nan
12213;BME280;6169;44.158;22.788;2022-07-12T08:45:08;101390.44;;;26.29;nan
12213;BME280;6169;44.158;22.788;2022-07-12T08:50:16;101393.06;;;26.15;nan
12213;BME280;6169;44.158;22.788;2022-07-12T08:55:21;101398.88;;;26.43;nan
12213;BME280;6169;44.158;22.788;2022-07-12T09:00:26;101394.03;;;26.30;nan
12213;BME280;6169;44.158;22.788;2022-07-12T09:05:29;101390.13;;;26.07;nan
12213;BME280;6169;44.158;22.788;2022-07-12T09:10:32;101394.56;;;26.32;nan
12213;BME280;6169;44.158;22.788;2022-07-12T09:15:36;101407.94;;;26.49;nan
12213;BME280;6169;44.158;22.788;2022-07-12T09:20:40;101393.16;;;27.44;nan
12213;BME280;6169;44.158;22.788;2022-07-12T09:25:44;101401.03;;;26.94;nan
12213;BME280;6169;44.158;22.788;2022-07-12T09:30:50;101393.78;;;26.26;nan
12213;BME280;6169;44.158;22.788;2022-07-12T09:36:01;101390.63;;;26.86;nan
12213;BME280;6169;44.158;22.788;2022-07-12T09:41:16;101407.16;;;26.91;nan
12213;BME280;6169;44.158;22.788;2022-07-12T09:46:20;101394.84;;;26.83;nan
12213;BME280;6169;44.158;22.788;2022-07-12T09:51:23;101384.56;;;27.46;nan
12213;BME280;6169;44.158;22.788;2022-07-12T09:56:28;101387.03;;;27.29;nan
12213;BME280;6169;44.158;22.788;2022-07-12T10:01:36;101386.44;;;26.89;nan
12213;BME280;6169;44.158;22.788;2022-07-12T10:06:40;101382.72;;;26.98;nan
12213;BME280;6169;44.158;22.788;2022-07-12T10:11:43;101388.53;;;27.72;nan
12213;BME280;6169;44.158;22.788;2022-07-12T10:16:50;101372.53;;;27.69;nan
12213;BME280;6169;44.158;22.788;2022-07-12T10:21:54;101377.63;;;27.81;nan
12213;BME280;6169;44.158;22.788;2022-07-12T10:26:57;101364.59;;;27.96;nan
12213;BME280;6169;44.158;22.788;2022-07-12T10:32:01;101360.16;;;27.62;nan
12213;BME280;6169;44.158;22.788;2022-07-12T10:37:10;101355.59;;;28.04;nan
12213;BME280;6169;44.158;22.788;2022-07-12T10:42:14;101355.03;;;28.48;nan
12213;BME280;6169;44.158;22.788;2022-07-12T10:47:18;101358.19;;;28.28;nan
12213;BME280;6169;44.158;22.788;2022-07-12T10:52:25;101344.56;;;28.95;nan
12213;BME280;6169;44.158;22.788;2022-07-12T10:57:38;101354.91;;;28.81;nan
12213;BME280;6169;44.158;22.788;2022-07-12T11:02:42;101341.75;;;28.31;nan
12213;BME280;6169;44.158;22.788;2022-07-12T11:07:47;101347.91;;;28.14;nan
12213;BME280;6169;44.158;22.788;2022-07-12T11:12:49;101335.09;;;28.96;nan
12213;BME280;6169;44.158;22.788;2022-07-12T11:17:53;101341.03;;;28.67;nan
12213;BME280;6169;44.158;22.788;2022-07-12T11:22:56;101342.72;;;28.91;nan
12213;BME280;6169;44.158;22.788;2022-07-12T11:27:59;101326.63;;;28.65;nan
12213;BME280;6169;44.158;22.788;2022-07-12T11:33:03;101330.69;;;29.09;nan
12213;BME280;6169;44.158;22.788;2022-07-12T11:38:05;101332.63;;;29.76;nan
12213;BME280;6169;44.158;22.788;2022-07-12T11:43:07;101333.50;;;30.16;nan
12213;BME280;6169;44.158;22.788;2022-07-12T11:48:11;101318.34;;;30.23;nan
12213;BME280;6169;44.158;22.788;2022-07-12T11:53:16;101311.44;;;29.35;nan
12213;BME280;6169;44.158;22.788;2022-07-12T11:58:19;101322.66;;;28.30;nan
12213;BME280;6169;44.158;22.788;2022-07-12T12:03:23;101300.94;;;29.10;nan
12213;BME280;6169;44.158;22.788;2022-07-12T12:08:26;101316.25;;;28.71;nan
12213;BME280;6169;44.158;22.788;2022-07-12T12:13:29;101305.63;;;29.68;nan
12213;BME280;6169;44.158;22.788;2022-07-12T12:18:34;101291.91;;;28.40;nan
12213;BME280;6169;44.158;22.788;2022-07-12T12:23:38;101296.22;;;28.32;nan
12213;BME280;6169;44.158;22.788;2022-07-12T12:28:45;101294.06;;;28.29;nan
12213;BME280;6169;44.158;22.788;2022-07-12T12:33:52;101295.94;;;28.48;nan
12213;BME280;6169;44.158;22.788;2022-07-12T12:38:55;101299.81;;;28.97;nan
12213;BME280;6169;44.158;22.788;2022-07-12T12:43:59;101295.44;;;28.82;nan
12213;BME280;6169;44.158;22.788;2022-07-12T12:49:03;101296.19;;;28.74;nan
12213;BME280;6169;44.158;22.788;2022-07-12T12:54:06;101295.50;;;29.04;nan
12213;BME280;6169;44.158;22.788;2022-07-12T12:59:09;101295.00;;;27.97;nan
12213;BME280;6169;44.158;22.788;2022-07-12T13:04:13;101295.28;;;27.96;nan
12213;BME280;6169;44.158;22.788;2022-07-12T13:09:15;101285.91;;;28.74;nan
12213;BME280;6169;44.158;22.788;2022-07-12T13:14:17;101295.28;;;29.15;nan
12213;BME280;6169;44.158;22.788;2022-07-12T13:19:21;101294.91;;;29.61;nan
12213;BME280;6169;44.158;22.788;2022-07-12T13:24:23;101299.38;;;29.17;nan
12213;BME280;6169;44.158;22.788;2022-07-12T13:29:26;101292.13;;;29.84;nan
12213;BME280;6169;44.158;22.788;2022-07-12T13:34:30;101290.81;;;28.77;nan
12213;BME280;6169;44.158;22.788;2022-07-12T13:39:32;101292.50;;;29.15;nan
12213;BME280;6169;44.158;22.788;2022-07-12T13:44:52;101286.34;;;29.71;nan
12213;BME280;6169;44.158;22.788;2022-07-12T13:49:56;101294.81;;;29.66;nan
12213;BME280;6169;44.158;22.788;2022-07-12T13:54:58;101279.25;;;29.34;nan
12213;BME280;6169;44.158;22.788;2022-07-12T14:00:01;101287.25;;;29.36;nan
12213;BME280;6169;44.158;22.788;2022-07-12T14:05:06;101291.56;;;29.50;nan
12213;BME280;6169;44.158;22.788;2022-07-12T14:10:10;101292.75;;;28.91;nan
12213;BME280;6169;44.158;22.788;2022-07-12T14:15:12;101292.09;;;29.53;nan
12213;BME280;6169;44.158;22.788;2022-07-12T14:20:38;101280.38;;;29.11;nan
12213;BME280;6169;44.158;22.788;2022-07-12T14:25:40;101285.00;;;30.00;nan
12213;BME280;6169;44.158;22.788;2022-07-12T14:30:43;101277.00;;;29.22;nan
12213;BME280;6169;44.158;22.788;2022-07-12T14:35:46;101270.13;;;30.53;nan
12213;BME280;6169;44.158;22.788;2022-07-12T14:40:49;101269.66;;;29.71;nan
12213;BME280;6169;44.158;22.788;2022-07-12T14:45:52;101278.22;;;29.08;nan
12213;BME280;6169;44.158;22.788;2022-07-12T14:50:56;101270.94;;;29.65;nan
12213;BME280;6169;44.158;22.788;2022-07-12T14:55:58;101270.53;;;29.58;nan
12213;BME280;6169;44.158;22.788;2022-07-12T15:01:00;101262.25;;;29.13;nan
12213;BME280;6169;44.158;22.788;2022-07-12T15:06:04;101259.25;;;29.55;nan
12213;BME280;6169;44.158;22.788;2022-07-12T15:11:07;101254.78;;;29.22;nan
12213;BME280;6169;44.158;22.788;2022-07-12T15:16:09;101261.50;;;28.49;nan
12213;BME280;6169;44.158;22.788;2022-07-12T15:21:13;101251.88;;;29.27;nan
12213;BME280;6169;44.158;22.788;2022-07-12T15:26:15;101260.19;;;29.73;nan
12213;BME280;6169;44.158;22.788;2022-07-12T15:31:18;101273.88;;;28.79;nan
12213;BME280;6169;44.158;22.788;2022-07-12T15:36:22;101261.31;;;28.81;nan
12213;BME280;6169;44.158;22.788;2022-07-12T15:41:24;101262.44;;;28.58;nan
12213;BME280;6169;44.158;22.788;2022-07-12T15:46:26;101261.44;;;28.76;nan
12213;BME280;6169;44.158;22.788;2022-07-12T15:51:30;101265.78;;;29.05;nan
12213;BME280;6169;44.158;22.788;2022-07-12T15:56:49;101261.88;;;29.06;nan
12213;BME280;6169;44.158;22.788;2022-07-12T16:01:52;101268.13;;;29.12;nan
12213;BME280;6169;44.158;22.788;2022-07-12T16:06:57;101260.56;;;28.39;nan
12213;BME280;6169;44.158;22.788;2022-07-12T16:11:59;101264.91;;;28.18;nan
12213;BME280;6169;44.158;22.788;2022-07-12T16:17:02;101273.47;;;28.72;nan
12213;BME280;6169;44.158;22.788;2022-07-12T16:22:06;101266.88;;;28.81;nan
12213;BME280;6169;44.158;22.788;2022-07-12T16:27:08;101264.72;;;28.78;nan
12213;BME280;6169;44.158;22.788;2022-07-12T16:32:10;101275.88;;;28.23;nan
12213;BME280;6169;44.158;22.788;2022-07-12T16:37:14;101266.84;;;28.31;nan
12213;BME280;6169;44.158;22.788;2022-07-12T16:42:16;101272.72;;;28.30;nan
12213;BME280;6169;44.158;22.788;2022-07-12T16:47:19;101274.16;;;28.41;nan
12213;BME280;6169;44.158;22.788;2022-07-12T16:52:23;101275.63;;;27.78;nan
12213;BME280;6169;44.158;22.788;2022-07-12T16:57:25;101259.34;;;28.18;nan
12213;BME280;6169;44.158;22.788;2022-07-12T17:02:28;101270.34;;;27.96;nan
12213;BME280;6169;44.158;22.788;2022-07-12T17:07:32;101280.66;;;27.76;nan
12213;BME280;6169;44.158;22.788;2022-07-12T17:12:35;101288.88;;;27.35;nan
12213;BME280;6169;44.158;22.788;2022-07-12T17:17:38;101283.50;;;27.05;nan
12213;BME280;6169;44.158;22.788;2022-07-12T17:22:42;101292.78;;;26.77;nan
12213;BME280;6169;44.158;22.788;2022-07-12T17:27:44;101296.22;;;27.25;nan
12213;BME280;6169;44.158;22.788;2022-07-12T17:32:46;101303.19;;;27.04;nan
12213;BME280;6169;44.158;22.788;2022-07-12T17:37:50;101309.91;;;26.60;nan
12213;BME280;6169;44.158;22.788;2022-07-12T17:42:52;101311.09;;;26.54;nan
12213;BME280;6169;44.158;22.788;2022-07-12T17:47:55;101311.59;;;26.32;nan
12213;BME280;6169;44.158;22.788;2022-07-12T17:52:58;101321.19;;;26.39;nan
12213;BME280;6169;44.158;22.788;2022-07-12T17:58:01;101313.91;;;26.25;nan
12213;BME280;6169;44.158;22.788;2022-07-12T18:03:20;101321.50;;;26.14;nan
12213;BME280;6169;44.158;22.788;2022-07-12T18:08:24;101322.38;;;26.09;nan
12213;BME280;6169;44.158;22.788;2022-07-12T18:13:27;101323.19;;;25.81;nan
12213;BME280;6169;44.158;22.788;2022-07-12T18:18:46;101323.78;;;26.07;nan
12213;BME280;6169;44.158;22.788;2022-07-12T18:23:50;101327.75;;;25.96;nan
12213;BME280;6169;44.158;22.788;2022-07-12T18:28:52;101337.50;;;25.54;nan
12213;BME280;6169;44.158;22.788;2022-07-12T18:33:55;101344.88;;;25.34;nan
12213;BME280;6169;44.158;22.788;2022-07-12T18:38:59;101342.16;;;25.29;nan
12213;BME280;6169;44.158;22.788;2022-07-12T18:44:02;101343.97;;;25.44;nan
12213;BME280;6169;44.158;22.788;2022-07-12T18:49:04;101363.97;;;25.25;nan
12213;BME280;6169;44.158;22.788;2022-07-12T18:54:08;101365.78;;;24.96;nan
12213;BME280;6169;44.158;22.788;2022-07-12T18:59:10;101371.53;;;24.99;nan
12213;BME280;6169;44.158;22.788;2022-07-12T19:04:13;101372.13;;;24.91;nan
12213;BME280;6169;44.158;22.788;2022-07-12T19:09:16;101373.97;;;24.56;nan
12213;BME280;6169;44.158;22.788;2022-07-12T19:14:19;101379.28;;;24.22;nan
12213;BME280;6169;44.158;22.788;2022-07-12T19:19:21;101381.47;;;24.10;nan
12213;BME280;6169;44.158;22.788;2022-07-12T19:24:25;101389.41;;;24.42;nan
12213;BME280;6169;44.158;22.788;2022-07-12T19:29:27;101381.13;;;24.57;nan
12213;BME280;6169;44.158;22.788;2022-07-12T19:34:30;101373.75;;;24.22;nan
12213;BME280;6169;44.158;22.788;2022-07-12T19:39:33;101372.13;;;23.96;nan
12213;BME280;6169;44.158;22.788;2022-07-12T19:44:36;101376.28;;;23.88;nan
12213;BME280;6169;44.158;22.788;2022-07-12T19:49:38;101375.97;;;23.23;nan
12213;BME280;6169;44.158;22.788;2022-07-12T19:54:43;101378.09;;;23.05;nan
12213;BME280;6169;44.158;22.788;2022-07-12T19:59:45;101373.97;;;22.98;nan
12213;BME280;6169;44.158;22.788;2022-07-12T20:04:48;101382.50;;;23.07;nan
12213;BME280;6169;44.158;22.788;2022-07-12T20:09:52;101375.63;;;23.14;nan
12213;BME280;6169;44.158;22.788;2022-07-12T20:14:54;101391.03;;;23.05;nan
12213;BME280;6169;44.158;22.788;2022-07-12T20:19:56;101379.22;;;23.10;nan
12213;BME280;6169;44.158;22.788;2022-07-12T20:25:00;101389.38;;;23.14;nan
12213;BME280;6169;44.158;22.788;2022-07-12T20:30:04;101390.00;;;23.26;nan
12213;BME280;6169;44.158;22.788;2022-07-12T20:35:07;101387.81;;;23.44;nan
12213;BME280;6169;44.158;22.788;2022-07-12T20:40:11;101384.53;;;23.57;nan
12213;BME280;6169;44.158;22.788;2022-07-12T20:45:14;101384.69;;;22.99;nan
12213;BME280;6169;44.158;22.788;2022-07-12T20:50:16;101393.28;;;23.18;nan
12213;BME280;6169;44.158;22.788;2022-07-12T20:55:20;101387.81;;;23.44;nan
12213;BME280;6169;44.158;22.788;2022-07-12T21:00:22;101391.31;;;23.14;nan
12213;BME280;6169;44.158;22.788;2022-07-12T21:05:24;101392.81;;;22.74;nan
12213;BME280;6169;44.158;22.788;2022-07-12T21:10:28;101393.28;;;22.60;nan
12213;BME280;6169;44.158;22.788;2022-07-12T21:15:33;101384.75;;;22.57;nan
12213;BME280;6169;44.158;22.788;2022-07-12T21:20:35;101396.72;;;22.35;nan
12213;BME280;6169;44.158;22.788;2022-07-12T21:25:40;101390.72;;;22.38;nan
12213;BME280;6169;44.158;22.788;2022-07-12T21:30:44;101391.19;;;22.83;nan
12213;BME280;6169;44.158;22.788;2022-07-12T21:35:47;101391.66;;;22.59;nan
12213;BME280;6169;44.158;22.788;2022-07-12T21:40:50;101396.56;;;22.15;nan
12213;BME280;6169;44.158;22.788;2022-07-12T21:45:53;101389.38;;;22.09;nan
12213;BME280;6169;44.158;22.788;2022-07-12T21:50:55;101398.16;;;21.68;nan
12213;BME280;6169;44.158;22.788;2022-07-12T21:55:59;101387.38;;;21.62;nan
12213;BME280;6169;44.158;22.788;2022-07-12T22:01:02;101396.41;;;21.62;nan
12213;BME280;6169;44.158;22.788;2022-07-12T22:06:05;101390.31;;;21.82;nan
12213;BME280;6169;44.158;22.788;2022-07-12T22:11:08;101397.91;;;21.43;nan
12213;BME280;6169;44.158;22.788;2022-07-12T22:16:13;101396.03;;;21.48;nan
12213;BME280;6169;44.158;22.788;2022-07-12T22:21:15;101395.81;;;21.55;nan
12213;BME280;6169;44.158;22.788;2022-07-12T22:26:19;101398.97;;;21.42;nan
12213;BME280;6169;44.158;22.788;2022-07-12T22:31:21;101401.19;;;21.18;nan
12213;BME280;6169;44.158;22.788;2022-07-12T22:36:24;101398.25;;;21.02;nan
12213;BME280;6169;44.158;22.788;2022-07-12T22:41:27;101402.69;;;20.81;nan
12213;BME280;6169;44.158;22.788;2022-07-12T22:46:30;101405.34;;;20.98;nan
12213;BME280;6169;44.158;22.788;2022-07-12T22:51:32;101402.25;;;21.17;nan
12213;BME280;6169;44.158;22.788;2022-07-12T22:57:02;101407.28;;;20.98;nan
12213;BME280;6169;44.158;22.788;2022-07-12T23:02:04;101404.84;;;21.01;nan
12213;BME280;6169;44.158;22.788;2022-07-12T23:07:06;101399.63;;;20.78;nan
12213;BME280;6169;44.158;22.788;2022-07-12T23:12:10;101405.41;;;20.59;nan
12213;BME280;6169;44.158;22.788;2022-07-12T23:17:12;101402.47;;;20.49;nan
12213;BME280;6169;44.158;22.788;2022-07-12T23:22:15;101402.09;;;20.41;nan
12213;BME280;6169;44.158;22.788;2022-07-12T23:27:18;101403.25;;;20.62;nan
12213;BME280;6169;44.158;22.788;2022-07-12T23:32:21;101411.84;;;20.70;nan
12213;BME280;6169;44.158;22.788;2022-07-12T23:37:23;101404.50;;;20.37;nan
12213;BME280;6169;44.158;22.788;2022-07-12T23:42:27;101400.56;;;20.11;nan
12213;BME280;6169;44.158;22.788;2022-07-12T23:47:29;101403.44;;;20.21;nan
12213;BME280;6169;44.158;22.788;2022-07-12T23:52:31;101409.44;;;19.84;nan
12213;BME280;6169;44.158;22.788;2022-07-12T23:57:35;101412.13;;;19.51;nan
